Time;durP1;ratioP1;P1;durP2;ratioP2;P2;SDS_P1;SDS_P2;PMS_P1;PMS_P2;Temp;Humidity;BMP_temperature;BMP_pressure;BME280_temperature;BME280_humidity;BME280_pressure;Samples;Min_cycle;Max_cycle;Signal;HPM_P1;HPM_P2
2022/04/18 00:00:17;;;;;;;7.72;3.10;;;;;;;;;;5030158;28;20472;-71
2022/04/18 00:02:43;;;;;;;6.80;2.40;;;;;;;;;;5028416;28;20085;-71
2022/04/18 00:05:09;;;;;;;5.60;2.80;;;;;;;;;;5027947;28;20095;-71
2022/04/18 00:07:34;;;;;;;5.55;2.40;;;;;;;;;;5029536;28;20300;-71
2022/04/18 00:09:59;;;;;;;3.58;2.20;;;;;;;;;;5029356;28;20064;-71
2022/04/18 00:12:24;;;;;;;8.65;3.67;;;;;;;;;;5013164;28;20021;-71
2022/04/18 00:14:50;;;;;;;3.95;2.58;;;;;;;;;;5029020;28;20037;-71
2022/04/18 00:17:15;;;;;;;3.13;1.60;;;;;;;;;;5031184;28;20037;-71
2022/04/18 00:19:41;;;;;;;5.40;2.25;;;;;;;;;;5028081;28;20017;-71
2022/04/18 00:22:06;;;;;;;4.85;2.50;;;;;;;;;;5027908;28;20029;-71
2022/04/18 00:24:31;;;;;;;4.85;2.13;;;;;;;;;;5029493;28;20021;-71
2022/04/18 00:26:56;;;;;;;6.70;2.42;;;;;;;;;;5032827;28;20139;-71
2022/04/18 00:29:22;;;;;;;9.85;2.67;;;;;;;;;;5028848;28;20025;-71
2022/04/18 00:31:47;;;;;;;4.45;2.13;;;;;;;;;;5025608;28;20540;-71
2022/04/18 00:34:14;;;;;;;4.57;2.10;;;;;;;;;;5029102;28;20033;-71
2022/04/18 00:36:39;;;;;;;9.23;2.13;;;;;;;;;;5028783;28;20272;-71
2022/04/18 00:39:04;;;;;;;4.90;2.47;;;;;;;;;;5028373;28;20048;-71
2022/04/18 00:41:30;;;;;;;2.75;1.67;;;;;;;;;;5027129;28;20794;-71
2022/04/18 00:43:55;;;;;;;4.53;2.50;;;;;;;;;;5028351;28;20024;-73
2022/04/18 00:46:21;;;;;;;5.20;2.42;;;;;;;;;;5030497;28;20092;-71
2022/04/18 00:48:46;;;;;;;4.35;2.20;;;;;;;;;;5011374;28;20044;-71
2022/04/18 00:51:22;;;;;;;5.30;2.47;;;;;;;;;;5026074;28;20033;-71
2022/04/18 00:53:48;;;;;;;4.40;2.20;;;;;;;;;;5009656;28;20036;-71
2022/04/18 00:56:15;;;;;;;8.02;2.55;;;;;;;;;;5028682;28;20033;-71
2022/04/18 00:58:41;;;;;;;6.43;2.30;;;;;;;;;;5028594;28;20017;-71
2022/04/18 01:01:06;;;;;;;4.68;2.00;;;;;;;;;;5028571;28;20581;-71
2022/04/18 01:03:32;;;;;;;5.30;2.08;;;;;;;;;;5027206;28;20092;-71
2022/04/18 01:05:58;;;;;;;4.37;2.10;;;;;;;;;;5027880;28;20018;-71
2022/04/18 01:08:25;;;;;;;5.43;2.33;;;;;;;;;;5028430;28;20282;-71
2022/04/18 01:10:50;;;;;;;8.07;2.15;;;;;;;;;;5028027;28;20022;-71
2022/04/18 01:13:16;;;;;;;2.72;1.70;;;;;;;;;;5028282;28;20040;-71
2022/04/18 01:15:41;;;;;;;4.00;2.03;;;;;;;;;;5030243;28;20029;-71
2022/04/18 01:18:06;;;;;;;5.40;2.00;;;;;;;;;;5029503;28;20280;-71
2022/04/18 01:20:34;;;;;;;5.95;2.17;;;;;;;;;;5029008;28;20272;-71
2022/04/18 01:23:00;;;;;;;4.00;1.98;;;;;;;;;;5027405;28;20082;-70
2022/04/18 01:30:54;;;;;;;5.60;2.65;;;;;;;;;;5029798;28;20033;-71
2022/04/18 01:33:19;;;;;;;5.30;2.08;;;;;;;;;;5016147;28;20394;-71
2022/04/18 01:35:44;;;;;;;5.00;1.97;;;;;;;;;;5030251;28;21382;-70
2022/04/18 01:38:09;;;;;;;4.68;2.15;;;;;;;;;;5031558;28;20330;-71
2022/04/18 01:40:34;;;;;;;3.93;2.00;;;;;;;;;;5030380;28;20045;-70
2022/04/18 01:43:00;;;;;;;3.92;2.00;;;;;;;;;;5037083;28;20661;-71
2022/04/18 01:45:25;;;;;;;3.70;2.00;;;;;;;;;;5031747;28;20381;-71
2022/04/18 01:47:50;;;;;;;4.33;1.80;;;;;;;;;;5030877;28;20021;-71
2022/04/18 01:50:15;;;;;;;4.55;1.88;;;;;;;;;;5029373;28;20748;-71
2022/04/18 01:52:40;;;;;;;7.80;2.07;;;;;;;;;;5029984;28;20511;-71
2022/04/18 01:55:06;;;;;;;4.10;2.17;;;;;;;;;;5030638;28;20272;-71
2022/04/18 01:57:31;;;;;;;3.42;1.90;;;;;;;;;;5029455;28;20713;-71
2022/04/18 01:59:56;;;;;;;4.45;1.88;;;;;;;;;;5031737;28;20049;-71
2022/04/18 02:02:21;;;;;;;5.20;1.92;;;;;;;;;;5032926;28;20021;-71
2022/04/18 02:04:47;;;;;;;3.37;1.90;;;;;;;;;;5031564;28;20425;-71
2022/04/18 02:07:12;;;;;;;4.47;2.30;;;;;;;;;;5032191;28;20315;-70
2022/04/18 02:09:40;;;;;;;5.97;1.70;;;;;;;;;;5012717;28;20284;-71
2022/04/18 02:12:06;;;;;;;6.80;1.83;;;;;;;;;;5030695;28;20018;-71
2022/04/18 02:14:31;;;;;;;2.80;1.83;;;;;;;;;;5028481;28;20033;-70
2022/04/18 02:16:56;;;;;;;5.60;1.93;;;;;;;;;;5029831;28;20108;-70
2022/04/18 02:19:22;;;;;;;4.73;2.00;;;;;;;;;;5037460;28;20639;-71
2022/04/18 02:21:47;;;;;;;5.10;1.63;;;;;;;;;;5031086;28;20366;-71
2022/04/18 02:24:14;;;;;;;6.17;2.00;;;;;;;;;;5032711;28;20779;-70
2022/04/18 02:26:39;;;;;;;3.33;1.73;;;;;;;;;;5030312;28;20283;-70
2022/04/18 02:29:04;;;;;;;7.85;2.20;;;;;;;;;;5031367;28;20021;-70
2022/04/18 02:31:29;;;;;;;3.03;1.90;;;;;;;;;;5029901;28;20076;-71
2022/04/18 02:33:54;;;;;;;4.90;2.13;;;;;;;;;;5031201;28;20304;-70
2022/04/18 02:36:20;;;;;;;4.05;1.80;;;;;;;;;;5031271;28;20275;-71
2022/04/18 02:38:45;;;;;;;5.37;2.13;;;;;;;;;;5032889;28;20026;-71
2022/04/18 02:41:10;;;;;;;4.70;2.13;;;;;;;;;;5030037;28;20315;-71
2022/04/18 02:43:35;;;;;;;8.27;2.63;;;;;;;;;;5029357;28;20036;-71
2022/04/18 02:46:00;;;;;;;4.23;1.90;;;;;;;;;;5029407;28;20264;-71
2022/04/18 02:48:26;;;;;;;5.57;2.50;;;;;;;;;;5028921;28;20272;-71
2022/04/18 02:50:51;;;;;;;4.57;1.85;;;;;;;;;;5030009;28;20028;-70
2022/04/18 02:53:16;;;;;;;3.27;1.87;;;;;;;;;;5031838;28;20010;-71
2022/04/18 02:55:42;;;;;;;6.07;2.07;;;;;;;;;;5034556;28;20312;-71
2022/04/18 02:58:07;;;;;;;6.63;2.13;;;;;;;;;;5029531;28;20279;-71
2022/04/18 03:00:32;;;;;;;4.35;1.60;;;;;;;;;;5030020;28;20040;-69
2022/04/18 03:02:57;;;;;;;7.40;2.60;;;;;;;;;;5029887;28;20029;-70
2022/04/18 03:05:22;;;;;;;4.57;2.17;;;;;;;;;;5027980;28;20278;-68
2022/04/18 03:07:47;;;;;;;4.70;2.63;;;;;;;;;;5012964;28;20367;-69
2022/04/18 03:10:13;;;;;;;3.37;2.23;;;;;;;;;;5029325;28;20036;-69
2022/04/18 03:12:38;;;;;;;3.28;1.83;;;;;;;;;;5029923;28;20760;-69
2022/04/18 03:15:03;;;;;;;3.78;2.13;;;;;;;;;;5028796;28;20470;-68
2022/04/18 03:17:28;;;;;;;3.72;1.73;;;;;;;;;;5029861;28;20017;-68
2022/04/18 03:19:54;;;;;;;5.10;2.00;;;;;;;;;;5029195;28;20029;-70
2022/04/18 03:22:19;;;;;;;5.28;1.90;;;;;;;;;;5028984;28;20052;-68
2022/04/18 03:24:45;;;;;;;4.18;2.25;;;;;;;;;;5030390;28;20071;-68
2022/04/18 03:27:11;;;;;;;4.03;2.35;;;;;;;;;;5030441;28;20037;-68
2022/04/18 03:29:37;;;;;;;5.00;2.20;;;;;;;;;;5030445;28;20021;-68
2022/04/18 03:32:02;;;;;;;5.18;2.40;;;;;;;;;;5029762;28;20017;-72
2022/04/18 03:34:27;;;;;;;7.35;2.53;;;;;;;;;;5033195;28;20599;-72
2022/04/18 03:39:52;;;;;;;4.55;1.98;;;;;;;;;;5030395;28;20032;-70
2022/04/18 03:42:17;;;;;;;;;;;;;;;;;;5029295;28;20029;-71
2022/04/18 03:44:43;;;;;;;4.82;1.95;;;;;;;;;;5029681;28;19920;-71
2022/04/18 03:47:08;;;;;;;4.32;2.35;;;;;;;;;;5027844;28;20477;-71
2022/04/18 03:49:34;;;;;;;3.63;2.03;;;;;;;;;;5028773;28;20087;-71
2022/04/18 03:51:59;;;;;;;5.87;2.60;;;;;;;;;;5028442;28;20025;-70
2022/04/18 03:54:24;;;;;;;4.97;2.90;;;;;;;;;;5027784;28;20633;-69
2022/04/18 03:56:49;;;;;;;12.13;2.50;;;;;;;;;;5029673;28;20268;-70
2022/04/18 03:59:14;;;;;;;7.10;2.40;;;;;;;;;;5026088;28;20665;-69
2022/04/18 04:01:40;;;;;;;4.93;2.40;;;;;;;;;;5036983;28;20369;-69
2022/04/18 04:04:05;;;;;;;8.80;2.42;;;;;;;;;;5028165;28;20009;-68
2022/04/18 04:06:30;;;;;;;8.07;2.40;;;;;;;;;;5032177;28;20034;-68
2022/04/18 04:08:55;;;;;;;3.97;1.88;;;;;;;;;;5027293;28;20029;-69
2022/04/18 04:11:21;;;;;;;3.50;2.00;;;;;;;;;;5029272;28;20041;-68
2022/04/18 04:13:46;;;;;;;5.07;2.33;;;;;;;;;;5028888;28;20275;-68
2022/04/18 04:16:11;;;;;;;4.90;2.67;;;;;;;;;;5029635;28;20079;-69
2022/04/18 04:18:37;;;;;;;3.87;2.20;;;;;;;;;;5026570;28;20351;-72
2022/04/18 04:21:02;;;;;;;4.45;1.80;;;;;;;;;;5027910;28;20264;-70
2022/04/18 04:23:27;;;;;;;6.53;2.13;;;;;;;;;;5028803;28;20036;-71
2022/04/18 04:25:52;;;;;;;3.67;2.33;;;;;;;;;;5028319;28;20528;-71
2022/04/18 04:28:17;;;;;;;5.53;2.38;;;;;;;;;;5026460;28;20037;-71
2022/04/18 04:30:43;;;;;;;6.17;2.20;;;;;;;;;;5028553;28;20018;-71
2022/04/18 04:33:08;;;;;;;3.80;2.00;;;;;;;;;;5028511;28;20279;-71
2022/04/18 04:35:33;;;;;;;5.63;1.80;;;;;;;;;;5028133;28;20363;-68
2022/04/18 04:37:58;;;;;;;4.77;2.40;;;;;;;;;;5027952;28;20751;-68
2022/04/18 04:40:23;;;;;;;3.17;1.90;;;;;;;;;;5029715;28;20279;-69
2022/04/18 04:42:48;;;;;;;5.47;2.28;;;;;;;;;;5025785;28;20845;-68
2022/04/18 04:45:14;;;;;;;5.00;2.58;;;;;;;;;;5031139;28;20682;-69
2022/04/18 04:47:39;;;;;;;3.47;2.05;;;;;;;;;;5026550;28;20044;-69
2022/04/18 04:50:04;;;;;;;4.65;2.30;;;;;;;;;;5027538;28;20025;-68
2022/04/18 04:52:30;;;;;;;5.35;2.17;;;;;;;;;;5027386;28;20104;-69
2022/04/18 04:54:55;;;;;;;5.72;2.55;;;;;;;;;;5007515;28;20020;-68
2022/04/18 04:57:20;;;;;;;4.43;2.40;;;;;;;;;;5028298;28;20092;-68
2022/04/18 04:59:45;;;;;;;4.40;2.03;;;;;;;;;;5029668;28;20069;-69
2022/04/18 05:02:10;;;;;;;6.25;2.25;;;;;;;;;;5031488;28;20028;-68
2022/04/18 05:04:35;;;;;;;5.17;2.50;;;;;;;;;;5031843;28;20048;-69
2022/04/18 05:07:01;;;;;;;5.67;2.00;;;;;;;;;;5032256;28;20807;-68
2022/04/18 05:09:26;;;;;;;8.55;2.10;;;;;;;;;;5032488;28;20283;-69
2022/04/18 05:11:52;;;;;;;4.57;2.55;;;;;;;;;;5031470;28;20069;-68
2022/04/18 05:14:18;;;;;;;3.13;1.77;;;;;;;;;;5032875;28;20072;-69
2022/04/18 05:16:43;;;;;;;2.90;1.67;;;;;;;;;;5031314;28;20029;-68
2022/04/18 05:19:08;;;;;;;3.50;1.87;;;;;;;;;;5029703;28;20025;-70
2022/04/18 05:21:34;;;;;;;4.27;1.90;;;;;;;;;;5030564;28;20645;-68
2022/04/18 05:23:59;;;;;;;4.15;2.45;;;;;;;;;;5032379;28;20377;-68
2022/04/18 05:26:24;;;;;;;6.55;3.15;;;;;;;;;;5035008;28;20092;-69
2022/04/18 05:28:49;;;;;;;10.73;3.20;;;;;;;;;;5030151;28;20029;-68
2022/04/18 05:31:19;;;;;;;4.63;2.60;;;;;;;;;;5029851;28;20405;-68
2022/04/18 05:33:44;;;;;;;5.68;2.60;;;;;;;;;;5029716;28;20477;-68
2022/04/18 05:36:09;;;;;;;6.00;2.80;;;;;;;;;;5031850;28;20040;-68
2022/04/18 05:38:35;;;;;;;5.97;2.90;;;;;;;;;;5013899;28;20040;-68
2022/04/18 05:41:00;;;;;;;12.55;2.85;;;;;;;;;;5032691;28;20021;-70
2022/04/18 05:43:25;;;;;;;6.72;2.67;;;;;;;;;;5031950;28;20064;-69
2022/04/18 05:45:50;;;;;;;6.63;2.57;;;;;;;;;;5030556;28;20025;-68
2022/04/18 05:48:16;;;;;;;7.10;2.58;;;;;;;;;;5031423;28;20371;-68
2022/04/18 05:50:45;;;;;;;5.07;2.50;;;;;;;;;;5030449;28;20484;-68
2022/04/18 05:53:10;;;;;;;5.50;2.28;;;;;;;;;;5032270;28;20357;-68
2022/04/18 05:55:37;;;;;;;13.77;3.50;;;;;;;;;;5033614;28;20450;-69
2022/04/18 05:58:02;;;;;;;7.43;2.35;;;;;;;;;;5029563;28;20268;-70
2022/04/18 06:00:27;;;;;;;8.07;2.72;;;;;;;;;;5011732;28;20167;-69
2022/04/18 06:02:53;;;;;;;5.33;2.23;;;;;;;;;;5030819;28;20033;-68
2022/04/18 06:05:18;;;;;;;6.25;2.47;;;;;;;;;;5029788;28;20800;-68
2022/04/18 06:07:45;;;;;;;7.13;2.40;;;;;;;;;;5031272;28;20112;-71
2022/04/18 06:10:10;;;;;;;5.57;2.25;;;;;;;;;;5030749;28;20276;-68
2022/04/18 06:12:36;;;;;;;5.30;2.47;;;;;;;;;;5013198;28;20363;-68
2022/04/18 06:15:01;;;;;;;4.75;2.63;;;;;;;;;;5030059;28;20084;-69
2022/04/18 06:17:26;;;;;;;4.70;2.23;;;;;;;;;;5033754;28;20017;-69
2022/04/18 06:19:51;;;;;;;9.77;2.77;;;;;;;;;;5033015;28;20859;-69
2022/04/18 06:22:16;;;;;;;2.97;1.73;;;;;;;;;;5039972;28;20272;-69
2022/04/18 06:24:42;;;;;;;3.97;2.20;;;;;;;;;;5033621;28;20662;-69
2022/04/18 06:27:07;;;;;;;4.63;2.10;;;;;;;;;;5030135;28;20097;-69
2022/04/18 06:29:32;;;;;;;4.03;2.37;;;;;;;;;;5033896;28;20484;-69
2022/04/18 06:31:57;;;;;;;5.15;2.55;;;;;;;;;;5032696;28;20280;-69
2022/04/18 06:34:25;;;;;;;6.07;2.08;;;;;;;;;;5028434;28;20044;-71
2022/04/18 06:36:50;;;;;;;5.18;2.33;;;;;;;;;;5026184;28;20551;-69
2022/04/18 06:39:15;;;;;;;3.73;1.70;;;;;;;;;;5030278;28;20033;-69
2022/04/18 06:41:41;;;;;;;5.33;2.03;;;;;;;;;;5029356;28;20283;-70
2022/04/18 06:44:06;;;;;;;4.63;2.00;;;;;;;;;;5029537;28;20359;-70
2022/04/18 06:46:31;;;;;;;6.22;1.88;;;;;;;;;;5029367;28;20029;-71
2022/04/18 06:48:56;;;;;;;5.28;2.22;;;;;;;;;;5030557;28;20083;-69
2022/04/18 06:51:21;;;;;;;5.00;1.80;;;;;;;;;;5028874;28;20500;-70
2022/04/18 06:53:47;;;;;;;2.93;1.80;;;;;;;;;;5029594;28;20276;-69
2022/04/18 06:58:56;;;;;;;3.45;2.13;;;;;;;;;;5029505;28;20132;-70
2022/04/18 07:01:21;;;;;;;5.75;2.03;;;;;;;;;;5030048;28;20581;-70
2022/04/18 07:03:46;;;;;;;3.27;1.63;;;;;;;;;;5028540;28;20445;-70
2022/04/18 07:06:12;;;;;;;5.03;1.23;;;;;;;;;;5029214;28;20272;-70
2022/04/18 07:08:38;;;;;;;3.90;2.10;;;;;;;;;;5029064;28;20346;-70
2022/04/18 07:11:03;;;;;;;2.60;1.60;;;;;;;;;;5029518;28;20276;-70
2022/04/18 07:13:29;;;;;;;4.40;2.45;;;;;;;;;;5031279;28;20083;-70
2022/04/18 07:15:54;;;;;;;5.30;2.22;;;;;;;;;;5028520;28;20075;-71
2022/04/18 07:18:19;;;;;;;4.70;2.20;;;;;;;;;;5027354;28;20029;-68
2022/04/18 07:20:44;;;;;;;3.20;1.40;;;;;;;;;;5030893;28;20294;-68
2022/04/18 07:23:10;;;;;;;7.63;2.37;;;;;;;;;;5036991;28;20272;-69
2022/04/18 07:25:35;;;;;;;4.35;2.00;;;;;;;;;;5033476;28;20033;-68
2022/04/18 07:28:00;;;;;;;5.37;2.10;;;;;;;;;;5028568;28;20049;-68
2022/04/18 07:30:29;;;;;;;3.13;1.80;;;;;;;;;;5028545;28;20022;-69
2022/04/18 07:32:55;;;;;;;4.03;1.95;;;;;;;;;;5028291;28;20057;-69
2022/04/18 07:35:20;;;;;;;4.25;2.08;;;;;;;;;;5027674;28;20060;-70
2022/04/18 07:40:29;;;;;;;5.50;2.08;;;;;;;;;;5027717;28;20299;-70
2022/04/18 07:42:54;;;;;;;4.07;1.90;;;;;;;;;;5029010;28;20025;-68
2022/04/18 07:45:20;;;;;;;4.05;2.13;;;;;;;;;;5030248;28;20117;-69
2022/04/18 07:47:45;;;;;;;3.58;2.03;;;;;;;;;;5029824;28;20078;-68
2022/04/18 07:50:10;;;;;;;4.07;2.10;;;;;;;;;;5031002;28;20036;-72
2022/04/18 07:52:35;;;;;;;3.75;2.00;;;;;;;;;;5029651;28;20276;-70
2022/04/18 07:55:01;;;;;;;2.63;1.70;;;;;;;;;;5028563;28;20023;-71
2022/04/18 07:57:26;;;;;;;6.83;2.03;;;;;;;;;;5030915;28;20343;-71
2022/04/18 07:59:51;;;;;;;3.63;2.27;;;;;;;;;;5026454;28;20090;-72
2022/04/18 08:02:18;;;;;;;4.13;1.90;;;;;;;;;;5028580;28;20368;-71
2022/04/18 08:04:43;;;;;;;3.03;1.83;;;;;;;;;;5030743;28;20021;-69
2022/04/18 08:07:08;;;;;;;4.90;2.00;;;;;;;;;;5036326;28;20017;-70
2022/04/18 08:09:34;;;;;;;3.83;1.67;;;;;;;;;;5032216;28;20018;-70
2022/04/18 08:12:02;;;;;;;3.80;1.90;;;;;;;;;;5032677;28;20897;-69
2022/04/18 08:14:27;;;;;;;3.35;1.92;;;;;;;;;;5033998;28;20037;-70
2022/04/18 08:16:52;;;;;;;5.17;2.07;;;;;;;;;;5034213;28;20017;-70
2022/04/18 08:19:17;;;;;;;3.43;1.70;;;;;;;;;;5026491;28;20321;-70
2022/04/18 08:21:42;;;;;;;6.13;2.03;;;;;;;;;;5029777;28;20426;-71
2022/04/18 08:24:08;;;;;;;2.88;1.60;;;;;;;;;;5028692;28;20021;-70
2022/04/18 08:26:33;;;;;;;3.60;2.08;;;;;;;;;;5033608;28;20100;-71
2022/04/18 08:28:58;;;;;;;4.17;1.87;;;;;;;;;;5033694;28;20032;-69
2022/04/18 08:31:23;;;;;;;2.55;1.88;;;;;;;;;;5035343;28;20279;-69
2022/04/18 08:33:49;;;;;;;6.17;1.77;;;;;;;;;;5032896;28;20033;-69
2022/04/18 08:36:14;;;;;;;2.83;1.58;;;;;;;;;;5034219;28;20032;-69
2022/04/18 08:38:39;;;;;;;5.22;1.73;;;;;;;;;;5012174;28;20029;-72
2022/04/18 08:41:05;;;;;;;3.53;1.80;;;;;;;;;;5033972;28;20021;-69
2022/04/18 08:43:30;;;;;;;4.45;2.05;;;;;;;;;;5029173;28;20040;-69
2022/04/18 08:45:56;;;;;;;7.53;1.87;;;;;;;;;;5031843;28;20017;-69
2022/04/18 08:54:02;;;;;;;2.97;2.00;;;;;;;;;;5027198;28;20040;-69
2022/04/18 08:56:27;;;;;;;2.72;1.60;;;;;;;;;;5028128;28;20010;-70
2022/04/18 08:58:53;;;;;;;3.77;1.63;;;;;;;;;;5031038;28;20079;-72
2022/04/18 09:01:18;;;;;;;3.63;2.08;;;;;;;;;;5015390;28;20270;-70
2022/04/18 09:03:43;;;;;;;2.47;1.60;;;;;;;;;;5030080;28;20039;-71
2022/04/18 09:06:12;;;;;;;3.45;1.85;;;;;;;;;;5026561;28;20025;-70
2022/04/18 09:08:46;;;;;;;2.70;1.38;;;;;;;;;;5026293;28;20014;-70
2022/04/18 09:11:24;;;;;;;5.25;2.25;;;;;;;;;;5026704;28;20029;-70
2022/04/18 09:13:49;;;;;;;4.45;2.20;;;;;;;;;;5023643;28;20374;-71
2022/04/18 09:16:16;;;;;;;4.82;2.03;;;;;;;;;;5031067;28;20029;-72
2022/04/18 09:18:42;;;;;;;5.00;2.92;;;;;;;;;;5023317;28;20033;-70
2022/04/18 09:21:08;;;;;;;4.80;2.50;;;;;;;;;;5028596;28;20104;-70
2022/04/18 09:23:34;;;;;;;9.20;1.00;;;;;;;;;;5028010;28;20065;-72
2022/04/18 09:26:00;;;;;;;3.08;1.60;;;;;;;;;;5026704;28;20322;-75
2022/04/18 09:28:29;;;;;;;3.97;1.85;;;;;;;;;;5027900;28;20017;-74
2022/04/18 09:31:07;;;;;;;5.70;2.20;;;;;;;;;;5027222;28;20018;-71
2022/04/18 09:33:39;;;;;;;3.80;2.03;;;;;;;;;;5028182;28;20068;-71
2022/04/18 09:36:05;;;;;;;3.85;2.03;;;;;;;;;;5028308;28;20029;-70
2022/04/18 09:38:30;;;;;;;6.28;2.20;;;;;;;;;;5029138;28;20010;-71
2022/04/18 09:40:55;;;;;;;3.43;1.80;;;;;;;;;;5026464;28;20017;-71
2022/04/18 09:43:21;;;;;;;2.97;1.77;;;;;;;;;;5028272;28;20610;-70
2022/04/18 09:45:47;;;;;;;3.70;1.80;;;;;;;;;;5028042;28;20082;-72
2022/04/18 09:48:15;;;;;;;4.20;1.75;;;;;;;;;;5029155;28;20516;-71
2022/04/18 09:50:59;;;;;;;4.47;2.10;;;;;;;;;;5030545;28;20059;-72
2022/04/18 09:53:24;;;;;;;8.57;3.83;;;;;;;;;;5030582;28;20100;-71
2022/04/18 09:55:51;;;;;;;3.03;1.92;;;;;;;;;;5032286;28;20113;-73
2022/04/18 09:58:16;;;;;;;5.80;2.70;;;;;;;;;;5031923;28;20017;-72
2022/04/18 10:00:41;;;;;;;4.55;2.00;;;;;;;;;;5030639;28;20032;-71
2022/04/18 10:03:07;;;;;;;4.30;1.42;;;;;;;;;;5030586;28;20530;-70
2022/04/18 10:05:33;;;;;;;5.93;2.00;;;;;;;;;;5031084;28;20029;-72
2022/04/18 10:08:03;;;;;;;5.10;1.90;;;;;;;;;;5031830;28;20017;-71
2022/04/18 10:10:29;;;;;;;3.35;2.30;;;;;;;;;;5030493;28;20029;-70
2022/04/18 10:12:54;;;;;;;4.50;2.10;;;;;;;;;;5030086;28;20264;-71
2022/04/18 10:15:19;;;;;;;4.03;2.30;;;;;;;;;;5030343;28;20028;-74
2022/04/18 10:17:44;;;;;;;4.80;2.87;;;;;;;;;;5031522;28;20292;-71
2022/04/18 10:20:18;;;;;;;3.88;2.00;;;;;;;;;;5030679;28;20036;-71
2022/04/18 10:22:55;;;;;;;3.40;1.85;;;;;;;;;;5032270;28;20009;-69
2022/04/18 10:25:21;;;;;;;3.50;1.38;;;;;;;;;;5031505;28;20021;-69
2022/04/18 10:27:59;;;;;;;3.42;2.13;;;;;;;;;;5032289;28;20288;-69
2022/04/18 10:30:24;;;;;;;6.55;2.10;;;;;;;;;;5024358;28;20022;-71
2022/04/18 10:32:50;;;;;;;5.90;1.77;;;;;;;;;;5031115;28;20030;-71
2022/04/18 10:35:15;;;;;;;8.40;1.88;;;;;;;;;;5030552;28;20124;-70
2022/04/18 10:37:41;;;;;;;4.80;2.58;;;;;;;;;;5032006;28;20021;-70
2022/04/18 10:40:07;;;;;;;4.68;2.00;;;;;;;;;;5030405;28;20108;-70
2022/04/18 10:42:33;;;;;;;5.80;2.00;;;;;;;;;;5029897;28;20170;-70
2022/04/18 10:45:17;;;;;;;9.80;5.10;;;;;;;;;;5030009;28;20026;-71
2022/04/18 10:48:04;;;;;;;21.83;8.20;;;;;;;;;;5029353;28;20079;-70
2022/04/18 10:50:33;;;;;;;5.68;2.03;;;;;;;;;;5030371;28;20048;-71
2022/04/18 10:53:19;;;;;;;4.35;2.83;;;;;;;;;;5030426;28;20025;-71
2022/04/18 10:55:50;;;;;;;3.40;1.75;;;;;;;;;;5030454;28;20022;-70
2022/04/18 10:58:17;;;;;;;3.17;1.15;;;;;;;;;;5030648;28;20099;-75
2022/04/18 11:00:52;;;;;;;5.60;2.35;;;;;;;;;;5028456;28;20020;-71
2022/04/18 11:03:36;;;;;;;4.40;2.38;;;;;;;;;;5012523;28;20017;-70
2022/04/18 11:06:02;;;;;;;4.18;1.90;;;;;;;;;;5032520;28;20417;-70
2022/04/18 11:08:29;;;;;;;4.38;2.03;;;;;;;;;;5029102;28;20021;-71
2022/04/18 11:11:02;;;;;;;2.22;1.27;;;;;;;;;;5029799;28;20478;-70
2022/04/18 11:13:27;;;;;;;3.63;1.65;;;;;;;;;;5029398;28;20018;-72
2022/04/18 11:15:52;;;;;;;4.18;1.50;;;;;;;;;;5030895;28;20017;-70
2022/04/18 11:18:28;;;;;;;3.00;1.43;;;;;;;;;;5030056;28;20049;-70
2022/04/18 11:20:54;;;;;;;13.18;3.00;;;;;;;;;;5027302;28;20292;-72
2022/04/18 11:23:22;;;;;;;6.57;1.50;;;;;;;;;;5011699;28;20120;-74
2022/04/18 11:26:08;;;;;;;3.28;1.60;;;;;;;;;;5031193;28;20104;-71
2022/04/18 11:28:35;;;;;;;4.13;1.85;;;;;;;;;;5033078;28;20058;-70
2022/04/18 11:31:00;;;;;;;2.38;1.40;;;;;;;;;;5025986;28;20045;-70
2022/04/18 11:33:25;;;;;;;2.38;1.15;;;;;;;;;;5025712;28;20434;-71
2022/04/18 11:35:51;;;;;;;3.10;1.65;;;;;;;;;;5028865;28;20025;-71
2022/04/18 11:38:16;;;;;;;4.18;2.05;;;;;;;;;;5030100;28;20093;-71
2022/04/18 11:40:44;;;;;;;3.33;1.30;;;;;;;;;;5030116;28;20493;-72
2022/04/18 11:43:10;;;;;;;18.48;8.07;;;;;;;;;;5033029;28;20025;-71
2022/04/18 11:45:36;;;;;;;13.50;3.70;;;;;;;;;;5028198;28;20013;-72
2022/04/18 11:48:03;;;;;;;5.33;1.70;;;;;;;;;;5029774;28;20382;-71
2022/04/18 11:50:29;;;;;;;3.03;1.30;;;;;;;;;;5028761;28;20260;-72
2022/04/18 11:53:01;;;;;;;4.25;1.60;;;;;;;;;;5029662;28;20025;-72
2022/04/18 11:55:26;;;;;;;3.10;1.17;;;;;;;;;;5031884;28;20025;-72
2022/04/18 11:57:51;;;;;;;2.53;1.10;;;;;;;;;;5032608;28;20025;-72
2022/04/18 12:06:44;;;;;;;2.63;1.27;;;;;;;;;;5028288;28;20316;-72
2022/04/18 12:08:33;;;;;;;3.17;1.50;;;;;;;;;;5028848;28;20032;-71
2022/04/18 12:10:58;;;;;;;2.15;1.20;;;;;;;;;;5028786;28;20017;-72
2022/04/18 12:13:24;;;;;;;2.17;1.33;;;;;;;;;;5030154;28;20032;-71
2022/04/18 12:15:49;;;;;;;2.63;1.50;;;;;;;;;;5034537;28;20037;-72
2022/04/18 12:18:15;;;;;;;5.35;1.23;;;;;;;;;;5028374;28;20291;-73
2022/04/18 12:20:44;;;;;;;2.03;1.10;;;;;;;;;;5029722;28;20021;-73
2022/04/18 12:23:14;;;;;;;2.47;1.48;;;;;;;;;;5028945;28;20064;-72
2022/04/18 12:25:42;;;;;;;7.20;1.00;;;;;;;;;;5028011;28;20052;-72
2022/04/18 12:28:07;;;;;;;4.15;1.10;;;;;;;;;;5009477;28;20032;-73
2022/04/18 12:30:32;;;;;;;4.57;1.13;;;;;;;;;;5028338;28;20100;-73
2022/04/18 12:33:11;;;;;;;1.95;0.80;;;;;;;;;;5028046;28;20306;-72
2022/04/18 12:35:41;;;;;;;4.35;1.20;;;;;;;;;;5026868;28;20022;-72
2022/04/18 12:38:07;;;;;;;0.83;0.60;;;;;;;;;;5027639;28;20040;-72
2022/04/18 12:40:33;;;;;;;4.05;1.42;;;;;;;;;;5028473;28;20366;-73
2022/04/18 12:43:03;;;;;;;2.88;1.20;;;;;;;;;;5029105;28;20049;-72
2022/04/18 12:45:39;;;;;;;1.67;0.95;;;;;;;;;;5029020;28;20101;-72
2022/04/18 12:48:05;;;;;;;2.28;1.00;;;;;;;;;;5028752;28;20112;-72
2022/04/18 12:50:33;;;;;;;2.80;0.98;;;;;;;;;;5029068;28;20100;-72
2022/04/18 12:52:58;;;;;;;1.58;0.90;;;;;;;;;;5031755;28;20032;-72
2022/04/18 12:55:24;;;;;;;3.33;0.93;;;;;;;;;;5040563;28;20017;-73
2022/04/18 12:57:50;;;;;;;2.63;1.55;;;;;;;;;;5032512;28;20625;-73
2022/04/18 13:00:15;;;;;;;1.73;1.10;;;;;;;;;;5035099;28;20025;-73
2022/04/18 13:02:55;;;;;;;2.00;0.98;;;;;;;;;;5043598;28;20321;-72
2022/04/18 13:05:24;;;;;;;2.22;1.10;;;;;;;;;;5040235;28;20025;-73
2022/04/18 13:07:49;;;;;;;1.95;1.17;;;;;;;;;;5031154;28;20034;-72
2022/04/18 13:10:14;;;;;;;3.33;1.40;;;;;;;;;;5042368;28;20073;-73
2022/04/18 13:12:39;;;;;;;7.90;1.33;;;;;;;;;;5031238;28;20367;-71
2022/04/18 13:15:05;;;;;;;2.73;1.13;;;;;;;;;;5039323;28;20021;-73
2022/04/18 13:17:33;;;;;;;1.88;1.20;;;;;;;;;;5027926;28;20256;-74
2022/04/18 13:19:59;;;;;;;1.00;0.68;;;;;;;;;;5029004;28;20553;-72
2022/04/18 13:22:24;;;;;;;3.40;1.40;;;;;;;;;;5031040;28;20473;-73
2022/04/18 13:24:50;;;;;;;3.08;1.23;;;;;;;;;;5042630;28;20010;-73
2022/04/18 13:27:25;;;;;;;3.10;1.10;;;;;;;;;;5032204;28;20497;-73
2022/04/18 13:29:50;;;;;;;1.90;1.13;;;;;;;;;;5030485;28;20021;-72
2022/04/18 13:32:15;;;;;;;2.17;1.00;;;;;;;;;;5030827;28;20029;-74
2022/04/18 13:34:40;;;;;;;2.73;1.47;;;;;;;;;;5032410;28;20275;-72
2022/04/18 13:37:05;;;;;;;2.70;1.67;;;;;;;;;;5032651;28;20375;-74
2022/04/18 13:39:31;;;;;;;1.57;1.10;;;;;;;;;;5033122;28;20032;-73
2022/04/18 13:41:56;;;;;;;3.45;1.23;;;;;;;;;;5030389;28;20303;-72
2022/04/18 13:44:21;;;;;;;1.67;1.20;;;;;;;;;;5029673;28;20523;-72
2022/04/18 13:46:47;;;;;;;4.82;1.40;;;;;;;;;;5029609;28;20329;-73
2022/04/18 13:49:13;;;;;;;2.88;1.20;;;;;;;;;;5032525;28;20052;-73
2022/04/18 13:51:39;;;;;;;3.47;1.25;;;;;;;;;;5031769;28;20014;-72
2022/04/18 13:54:05;;;;;;;4.33;0.97;;;;;;;;;;5032151;28;20162;-73
2022/04/18 13:56:30;;;;;;;3.50;1.08;;;;;;;;;;5031818;28;20809;-73
2022/04/18 13:58:55;;;;;;;2.28;1.40;;;;;;;;;;5030213;28;20033;-72
2022/04/18 14:01:20;;;;;;;2.83;1.33;;;;;;;;;;5031236;28;20013;-73
2022/04/18 14:03:46;;;;;;;3.25;1.08;;;;;;;;;;5031732;28;20021;-73
2022/04/18 14:06:11;;;;;;;2.40;1.10;;;;;;;;;;5031118;28;20053;-71
2022/04/18 14:08:37;;;;;;;2.17;1.00;;;;;;;;;;5033863;28;20057;-73
2022/04/18 14:11:03;;;;;;;3.35;1.17;;;;;;;;;;5030290;28;20107;-73
2022/04/18 14:13:28;;;;;;;4.53;1.10;;;;;;;;;;5030763;28;20049;-73
2022/04/18 14:21:22;;;;;;;3.10;1.13;;;;;;;;;;5031048;28;20488;-73
2022/04/18 14:23:47;;;;;;;6.53;1.37;;;;;;;;;;5030701;28;20025;-73
2022/04/18 14:26:14;;;;;;;1.60;0.77;;;;;;;;;;5033266;28;20268;-73
2022/04/18 14:28:39;;;;;;;1.77;1.00;;;;;;;;;;5031137;28;20382;-73
2022/04/18 14:31:04;;;;;;;2.23;1.00;;;;;;;;;;5031163;28;20013;-73
2022/04/18 14:33:29;;;;;;;0.97;0.77;;;;;;;;;;5034056;28;20357;-73
2022/04/18 14:35:55;;;;;;;3.70;1.70;;;;;;;;;;5033579;28;20385;-73
2022/04/18 14:38:20;;;;;;;1.58;0.65;;;;;;;;;;5030768;28;20029;-73
2022/04/18 14:40:45;;;;;;;3.07;0.87;;;;;;;;;;5031570;28;20075;-73
2022/04/18 14:43:14;;;;;;;2.88;0.95;;;;;;;;;;5011599;28;20406;-74
2022/04/18 14:45:40;;;;;;;1.52;1.00;;;;;;;;;;5028458;28;20024;-73
2022/04/18 14:48:05;;;;;;;2.38;1.10;;;;;;;;;;5029804;28;20453;-73
2022/04/18 14:50:30;;;;;;;2.55;0.98;;;;;;;;;;5031677;28;20067;-71
2022/04/18 14:52:55;;;;;;;2.50;1.00;;;;;;;;;;5030548;28;20570;-72
2022/04/18 14:55:20;;;;;;;1.83;0.70;;;;;;;;;;5030049;28;20017;-71
2022/04/18 14:57:46;;;;;;;5.37;1.13;;;;;;;;;;5031542;28;20594;-73
2022/04/18 15:00:11;;;;;;;5.30;0.70;;;;;;;;;;5030258;28;20025;-72
2022/04/18 15:02:38;;;;;;;2.00;0.63;;;;;;;;;;5030962;28;20106;-73
2022/04/18 15:05:03;;;;;;;4.07;1.20;;;;;;;;;;5030637;28;20031;-73
2022/04/18 15:07:28;;;;;;;2.28;1.00;;;;;;;;;;5032078;28;20022;-72